sensor_id;sensor_type;location;lat;lon;timestamp;pressure;altitude;pressure_sealevel;temperature;humidity
63194;BME280;49289;51.670;5.624;2023-03-16T00:01:18;101963.54;;;11.05;47.58
63194;BME280;49289;51.670;5.624;2023-03-16T00:03:06;101940.42;;;11.03;47.63
63194;BME280;49289;51.670;5.624;2023-03-16T00:04:55;101943.04;;;10.85;47.62
63194;BME280;49289;51.670;5.624;2023-03-16T00:06:42;101962.20;;;11.39;47.27
63194;BME280;49289;51.670;5.624;2023-03-16T00:08:30;101957.43;;;11.11;47.38
63194;BME280;49289;51.670;5.624;2023-03-16T00:10:19;101950.72;;;10.98;47.96
63194;BME280;49289;51.670;5.624;2023-03-16T00:12:06;101933.73;;;10.98;47.83
63194;BME280;49289;51.670;5.624;2023-03-16T00:13:53;101932.73;;;10.96;47.90
63194;BME280;49289;51.670;5.624;2023-03-16T00:15:40;101954.31;;;11.18;47.67
63194;BME280;49289;51.670;5.624;2023-03-16T00:17:27;101943.05;;;11.07;47.67
63194;BME280;49289;51.670;5.624;2023-03-16T00:19:14;101936.46;;;11.05;47.77
63194;BME280;49289;51.670;5.624;2023-03-16T00:21:04;101954.39;;;11.38;47.69
63194;BME280;49289;51.670;5.624;2023-03-16T00:22:52;101955.23;;;11.04;48.11
63194;BME280;49289;51.670;5.624;2023-03-16T00:24:39;101955.59;;;11.28;47.91
63194;BME280;49289;51.670;5.624;2023-03-16T00:26:26;101935.78;;;11.31;47.60
63194;BME280;49289;51.670;5.624;2023-03-16T00:28:14;101948.78;;;11.16;47.74
63194;BME280;49289;51.670;5.624;2023-03-16T00:30:01;101925.73;;;11.04;48.24
63194;BME280;49289;51.670;5.624;2023-03-16T00:31:48;101936.54;;;10.92;48.69
63194;BME280;49289;51.670;5.624;2023-03-16T00:33:35;101922.38;;;10.89;48.92
63194;BME280;49289;51.670;5.624;2023-03-16T00:35:22;101920.67;;;10.96;48.84
63194;BME280;49289;51.670;5.624;2023-03-16T00:37:09;101919.89;;;10.91;48.46
63194;BME280;49289;51.670;5.624;2023-03-16T00:38:56;101922.84;;;11.04;48.58
63194;BME280;49289;51.670;5.624;2023-03-16T00:40:43;101917.00;;;11.02;48.48
63194;BME280;49289;51.670;5.624;2023-03-16T00:42:30;101916.23;;;10.86;48.63
63194;BME280;49289;51.670;5.624;2023-03-16T00:44:17;101926.68;;;11.11;48.23
63194;BME280;49289;51.670;5.624;2023-03-16T00:46:10;101912.95;;;11.20;48.36
63194;BME280;49289;51.670;5.624;2023-03-16T00:47:56;101906.27;;;11.25;47.95
63194;BME280;49289;51.670;5.624;2023-03-16T00:49:43;101924.96;;;11.19;48.13
63194;BME280;49289;51.670;5.624;2023-03-16T00:51:28;101908.23;;;10.88;48.76
63194;BME280;49289;51.670;5.624;2023-03-16T00:53:15;101922.89;;;11.12;48.41
63194;BME280;49289;51.670;5.624;2023-03-16T00:55:02;101897.41;;;11.10;48.52
63194;BME280;49289;51.670;5.624;2023-03-16T00:56:49;101906.15;;;10.97;48.62
63194;BME280;49289;51.670;5.624;2023-03-16T00:58:37;101888.48;;;11.06;48.53
63194;BME280;49289;51.670;5.624;2023-03-16T01:00:24;101889.23;;;11.13;48.14
63194;BME280;49289;51.670;5.624;2023-03-16T01:02:12;101886.91;;;11.18;48.21
63194;BME280;49289;51.670;5.624;2023-03-16T01:04:00;101885.77;;;11.33;48.17
63194;BME280;49289;51.670;5.624;2023-03-16T01:05:51;101882.34;;;11.16;48.39
63194;BME280;49289;51.670;5.624;2023-03-16T01:07:38;101904.39;;;11.52;48.11
63194;BME280;49289;51.670;5.624;2023-03-16T01:09:25;101880.37;;;11.48;47.78
63194;BME280;49289;51.670;5.624;2023-03-16T01:11:14;101879.78;;;11.48;47.81
63194;BME280;49289;51.670;5.624;2023-03-16T01:13:02;101872.75;;;11.44;47.98
63194;BME280;49289;51.670;5.624;2023-03-16T01:14:50;101881.45;;;11.19;48.39
63194;BME280;49289;51.670;5.624;2023-03-16T01:16:38;101889.72;;;11.14;48.66
63194;BME280;49289;51.670;5.624;2023-03-16T01:18:26;101860.31;;;11.34;48.39
63194;BME280;49289;51.670;5.624;2023-03-16T01:20:15;101873.61;;;11.63;48.23
63194;BME280;49289;51.670;5.624;2023-03-16T01:22:03;101856.26;;;11.46;48.25
63194;BME280;49289;51.670;5.624;2023-03-16T01:23:51;101856.34;;;11.36;48.35
63194;BME280;49289;51.670;5.624;2023-03-16T01:25:39;101873.16;;;11.13;48.74
63194;BME280;49289;51.670;5.624;2023-03-16T01:27:27;101877.45;;;11.30;48.64
63194;BME280;49289;51.670;5.624;2023-03-16T01:29:15;101873.89;;;11.31;48.41
63194;BME280;49289;51.670;5.624;2023-03-16T01:31:04;101851.64;;;11.28;48.56
63194;BME280;49289;51.670;5.624;2023-03-16T01:32:50;101870.30;;;11.04;48.98
63194;BME280;49289;51.670;5.624;2023-03-16T01:34:37;101848.41;;;10.98;49.08
63194;BME280;49289;51.670;5.624;2023-03-16T01:36:24;101864.29;;;10.70;49.62
63194;BME280;49289;51.670;5.624;2023-03-16T01:38:12;101860.95;;;10.69;49.76
63194;BME280;49289;51.670;5.624;2023-03-16T01:40:00;101843.94;;;10.90;49.35
63194;BME280;49289;51.670;5.624;2023-03-16T01:41:49;101855.52;;;10.90;49.55
63194;BME280;49289;51.670;5.624;2023-03-16T01:43:37;101850.69;;;10.92;49.85
63194;BME280;49289;51.670;5.624;2023-03-16T01:47:40;101852.30;;;10.91;49.85
63194;BME280;49289;51.670;5.624;2023-03-16T01:49:29;101848.08;;;10.95;49.59
63194;BME280;49289;51.670;5.624;2023-03-16T01:51:16;101838.27;;;10.91;49.56
63194;BME280;49289;51.670;5.624;2023-03-16T01:53:02;101854.02;;;10.65;50.05
63194;BME280;49289;51.670;5.624;2023-03-16T01:54:50;101850.94;;;10.72;49.93
63194;BME280;49289;51.670;5.624;2023-03-16T01:56:38;101829.04;;;10.42;50.37
63194;BME280;49289;51.670;5.624;2023-03-16T01:58:25;101841.00;;;10.74;50.02
63194;BME280;49289;51.670;5.624;2023-03-16T02:00:15;101838.26;;;10.54;50.35
63194;BME280;49289;51.670;5.624;2023-03-16T02:02:01;101844.47;;;11.08;49.50
63194;BME280;49289;51.670;5.624;2023-03-16T02:03:48;101825.70;;;10.80;50.12
63194;BME280;49289;51.670;5.624;2023-03-16T02:05:37;101824.77;;;10.75;49.91
63194;BME280;49289;51.670;5.624;2023-03-16T02:07:23;101819.98;;;10.67;49.71
63194;BME280;49289;51.670;5.624;2023-03-16T02:09:10;101837.14;;;11.08;49.48
63194;BME280;49289;51.670;5.624;2023-03-16T02:10:58;101831.84;;;10.81;49.95
63194;BME280;49289;51.670;5.624;2023-03-16T02:12:47;101809.22;;;10.67;49.78
63194;BME280;49289;51.670;5.624;2023-03-16T02:14:35;101826.91;;;10.91;50.07
63194;BME280;49289;51.670;5.624;2023-03-16T02:16:22;101809.02;;;10.77;49.76
63194;BME280;49289;51.670;5.624;2023-03-16T02:18:09;101804.78;;;11.11;49.29
63194;BME280;49289;51.670;5.624;2023-03-16T02:19:59;101800.14;;;10.82;49.73
63194;BME280;49289;51.670;5.624;2023-03-16T02:21:47;101816.42;;;11.24;49.16
63194;BME280;49289;51.670;5.624;2023-03-16T02:23:35;101818.74;;;10.70;49.99
63194;BME280;49289;51.670;5.624;2023-03-16T02:25:24;101814.82;;;10.81;50.19
63194;BME280;49289;51.670;5.624;2023-03-16T02:27:11;101798.87;;;10.54;50.40
63194;BME280;49289;51.670;5.624;2023-03-16T02:29:02;101797.89;;;10.73;50.18
63194;BME280;49289;51.670;5.624;2023-03-16T02:30:47;101807.34;;;10.64;50.56
63194;BME280;49289;51.670;5.624;2023-03-16T02:32:34;101794.44;;;11.02;49.56
63194;BME280;49289;51.670;5.624;2023-03-16T02:34:21;101785.27;;;11.30;49.23
63194;BME280;49289;51.670;5.624;2023-03-16T02:36:08;101792.17;;;10.95;49.55
63194;BME280;49289;51.670;5.624;2023-03-16T02:37:55;101811.73;;;11.12;49.14
63194;BME280;49289;51.670;5.624;2023-03-16T02:39:42;101792.64;;;11.26;49.37
63194;BME280;49289;51.670;5.624;2023-03-16T02:41:29;101789.79;;;11.33;49.12
63194;BME280;49289;51.670;5.624;2023-03-16T02:43:17;101789.41;;;11.29;49.01
63194;BME280;49289;51.670;5.624;2023-03-16T02:45:05;101796.83;;;11.11;49.01
63194;BME280;49289;51.670;5.624;2023-03-16T02:46:54;101798.71;;;10.42;50.46
63194;BME280;49289;51.670;5.624;2023-03-16T02:48:42;101797.70;;;10.75;50.48
63194;BME280;49289;51.670;5.624;2023-03-16T02:50:27;101812.67;;;10.76;50.62
63194;BME280;49289;51.670;5.624;2023-03-16T02:52:14;101818.38;;;10.94;51.28
63194;BME280;49289;51.670;5.624;2023-03-16T02:54:01;101813.98;;;10.77;51.42
63194;BME280;49289;51.670;5.624;2023-03-16T02:55:48;101799.05;;;11.04;51.16
63194;BME280;49289;51.670;5.624;2023-03-16T02:57:35;101819.48;;;10.65;52.12
63194;BME280;49289;51.670;5.624;2023-03-16T02:59:23;101801.59;;;10.54;52.54
63194;BME280;49289;51.670;5.624;2023-03-16T03:01:10;101814.30;;;10.27;53.32
63194;BME280;49289;51.670;5.624;2023-03-16T03:02:58;101793.23;;;10.39;53.31
63194;BME280;49289;51.670;5.624;2023-03-16T03:04:45;101795.86;;;10.37;53.22
63194;BME280;49289;51.670;5.624;2023-03-16T03:06:32;101807.93;;;10.34;53.63
63194;BME280;49289;51.670;5.624;2023-03-16T03:08:19;101793.77;;;10.21;53.75
63194;BME280;49289;51.670;5.624;2023-03-16T03:10:06;101809.30;;;10.54;53.35
63194;BME280;49289;51.670;5.624;2023-03-16T03:11:53;101810.16;;;10.72;53.38
63194;BME280;49289;51.670;5.624;2023-03-16T03:13:40;101805.88;;;10.59;53.27
63194;BME280;49289;51.670;5.624;2023-03-16T03:15:27;101806.03;;;10.42;53.67
63194;BME280;49289;51.670;5.624;2023-03-16T03:17:14;101795.96;;;10.59;53.22
63194;BME280;49289;51.670;5.624;2023-03-16T03:19:02;101794.19;;;9.99;54.01
63194;BME280;49289;51.670;5.624;2023-03-16T03:20:49;101805.44;;;10.64;53.73
63194;BME280;49289;51.670;5.624;2023-03-16T03:22:36;101785.50;;;10.65;53.57
63194;BME280;49289;51.670;5.624;2023-03-16T03:24:23;101795.75;;;10.90;53.12
63194;BME280;49289;51.670;5.624;2023-03-16T03:26:10;101780.49;;;10.60;52.44
63194;BME280;49289;51.670;5.624;2023-03-16T03:27:57;101793.13;;;10.70;53.29
63194;BME280;49289;51.670;5.624;2023-03-16T03:29:44;101788.88;;;11.00;52.83
63194;BME280;49289;51.670;5.624;2023-03-16T03:31:31;101776.67;;;10.87;52.55
63194;BME280;49289;51.670;5.624;2023-03-16T03:33:18;101774.80;;;10.90;52.57
63194;BME280;49289;51.670;5.624;2023-03-16T03:35:05;101769.98;;;10.64;52.97
63194;BME280;49289;51.670;5.624;2023-03-16T03:36:52;101783.44;;;10.95;53.07
63194;BME280;49289;51.670;5.624;2023-03-16T03:38:39;101783.53;;;11.23;52.51
63194;BME280;49289;51.670;5.624;2023-03-16T03:40:26;101763.42;;;11.15;52.36
63194;BME280;49289;51.670;5.624;2023-03-16T03:42:13;101774.47;;;10.71;52.82
63194;BME280;49289;51.670;5.624;2023-03-16T03:44:02;101755.18;;;10.78;52.94
63194;BME280;49289;51.670;5.624;2023-03-16T03:45:49;101773.53;;;10.85;52.64
63194;BME280;49289;51.670;5.624;2023-03-16T03:47:37;101770.63;;;10.89;52.63
63194;BME280;49289;51.670;5.624;2023-03-16T03:49:24;101767.34;;;10.48;52.83
63194;BME280;49289;51.670;5.624;2023-03-16T03:51:11;101747.73;;;10.84;52.82
63194;BME280;49289;51.670;5.624;2023-03-16T03:52:58;101752.95;;;10.96;52.07
63194;BME280;49289;51.670;5.624;2023-03-16T03:54:45;101745.58;;;10.92;52.60
63194;BME280;49289;51.670;5.624;2023-03-16T03:56:32;101753.06;;;10.65;52.47
63194;BME280;49289;51.670;5.624;2023-03-16T03:58:19;101748.95;;;10.58;52.68
63194;BME280;49289;51.670;5.624;2023-03-16T04:00:06;101767.00;;;10.96;51.94
63194;BME280;49289;51.670;5.624;2023-03-16T04:01:53;101761.90;;;10.94;52.13
63194;BME280;49289;51.670;5.624;2023-03-16T04:03:40;101761.06;;;11.01;52.36
63194;BME280;49289;51.670;5.624;2023-03-16T04:05:27;101763.19;;;10.97;52.17
63194;BME280;49289;51.670;5.624;2023-03-16T04:07:14;101761.98;;;11.02;51.73
63194;BME280;49289;51.670;5.624;2023-03-16T04:09:01;101761.17;;;11.01;51.94
63194;BME280;49289;51.670;5.624;2023-03-16T04:10:49;101730.53;;;10.40;52.62
63194;BME280;49289;51.670;5.624;2023-03-16T04:12:37;101733.92;;;10.43;52.68
63194;BME280;49289;51.670;5.624;2023-03-16T04:14:25;101742.14;;;10.76;51.99
63194;BME280;49289;51.670;5.624;2023-03-16T04:16:13;101757.28;;;10.73;52.43
63194;BME280;49289;51.670;5.624;2023-03-16T04:18:00;101741.03;;;10.84;52.17
63194;BME280;49289;51.670;5.624;2023-03-16T04:19:47;101760.64;;;11.17;51.50
63194;BME280;49289;51.670;5.624;2023-03-16T04:21:36;101761.88;;;10.81;51.65
63194;BME280;49289;51.670;5.624;2023-03-16T04:23:23;101743.05;;;11.00;51.24
63194;BME280;49289;51.670;5.624;2023-03-16T04:25:13;101742.92;;;10.79;51.66
63194;BME280;49289;51.670;5.624;2023-03-16T04:27:00;101739.88;;;10.84;51.33
63194;BME280;49289;51.670;5.624;2023-03-16T04:28:47;101756.75;;;11.00;51.67
63194;BME280;49289;51.670;5.624;2023-03-16T04:30:35;101754.77;;;11.11;51.22
63194;BME280;49289;51.670;5.624;2023-03-16T04:32:22;101750.95;;;10.98;51.44
63194;BME280;49289;51.670;5.624;2023-03-16T04:34:09;101735.70;;;10.90;51.24
63194;BME280;49289;51.670;5.624;2023-03-16T04:35:56;101730.19;;;10.67;51.85
63194;BME280;49289;51.670;5.624;2023-03-16T04:37:43;101747.84;;;11.08;51.63
63194;BME280;49289;51.670;5.624;2023-03-16T04:39:30;101749.19;;;11.21;51.18
63194;BME280;49289;51.670;5.624;2023-03-16T04:41:17;101743.88;;;11.27;51.13
63194;BME280;49289;51.670;5.624;2023-03-16T04:43:04;101730.88;;;10.87;51.47
63194;BME280;49289;51.670;5.624;2023-03-16T04:44:51;101742.05;;;11.19;51.33
63194;BME280;49289;51.670;5.624;2023-03-16T04:46:38;101724.07;;;11.27;50.95
63194;BME280;49289;51.670;5.624;2023-03-16T04:48:25;101731.64;;;10.66;51.81
63194;BME280;49289;51.670;5.624;2023-03-16T04:50:13;101730.65;;;10.81;51.28
63194;BME280;49289;51.670;5.624;2023-03-16T04:52:01;101730.61;;;11.09;50.94
63194;BME280;49289;51.670;5.624;2023-03-16T04:53:49;101746.13;;;11.11;51.19
63194;BME280;49289;51.670;5.624;2023-03-16T04:55:37;101722.25;;;11.10;51.00
63194;BME280;49289;51.670;5.624;2023-03-16T04:57:25;101721.19;;;11.11;50.72
63194;BME280;49289;51.670;5.624;2023-03-16T04:59:13;101721.37;;;10.68;51.12
63194;BME280;49289;51.670;5.624;2023-03-16T05:01:01;101727.14;;;11.03;51.11
63194;BME280;49289;51.670;5.624;2023-03-16T05:02:49;101733.86;;;11.27;50.83
63194;BME280;49289;51.670;5.624;2023-03-16T05:04:37;101714.77;;;11.15;50.80
63194;BME280;49289;51.670;5.624;2023-03-16T05:06:24;101720.47;;;11.03;51.14
63194;BME280;49289;51.670;5.624;2023-03-16T05:08:12;101735.06;;;11.02;51.01
63194;BME280;49289;51.670;5.624;2023-03-16T05:10:00;101714.63;;;11.05;50.98
63194;BME280;49289;51.670;5.624;2023-03-16T05:11:49;101730.80;;;11.02;50.90
63194;BME280;49289;51.670;5.624;2023-03-16T05:13:36;101730.53;;;11.21;50.91
63194;BME280;49289;51.670;5.624;2023-03-16T05:15:24;101709.23;;;10.88;51.15
63194;BME280;49289;51.670;5.624;2023-03-16T05:17:12;101712.48;;;10.90;51.24
63194;BME280;49289;51.670;5.624;2023-03-16T05:19:02;101714.06;;;11.18;51.03
63194;BME280;49289;51.670;5.624;2023-03-16T05:20:49;101721.81;;;10.85;51.34
63194;BME280;49289;51.670;5.624;2023-03-16T05:22:38;101720.38;;;10.84;51.74
63194;BME280;49289;51.670;5.624;2023-03-16T05:24:25;101718.02;;;10.94;51.42
63194;BME280;49289;51.670;5.624;2023-03-16T05:26:13;101717.98;;;11.15;51.28
63194;BME280;49289;51.670;5.624;2023-03-16T05:28:01;101701.09;;;10.73;52.03
63194;BME280;49289;51.670;5.624;2023-03-16T05:29:49;101699.91;;;10.70;51.88
63194;BME280;49289;51.670;5.624;2023-03-16T05:31:37;101694.92;;;11.07;51.04
63194;BME280;49289;51.670;5.624;2023-03-16T05:33:24;101715.66;;;11.34;50.91
63194;BME280;49289;51.670;5.624;2023-03-16T05:35:11;101693.55;;;11.28;50.86
63194;BME280;49289;51.670;5.624;2023-03-16T05:36:58;101696.52;;;11.11;51.01
63194;BME280;49289;51.670;5.624;2023-03-16T05:38:45;101700.71;;;10.91;51.47
63194;BME280;49289;51.670;5.624;2023-03-16T05:40:32;101695.36;;;11.01;51.48
63194;BME280;49289;51.670;5.624;2023-03-16T05:42:21;101690.53;;;11.03;51.35
63194;BME280;49289;51.670;5.624;2023-03-16T05:44:09;101707.38;;;11.36;51.16
63194;BME280;49289;51.670;5.624;2023-03-16T05:45:56;101696.12;;;10.38;52.52
63194;BME280;49289;51.670;5.624;2023-03-16T05:47:44;101694.98;;;10.64;52.63
63194;BME280;49289;51.670;5.624;2023-03-16T05:49:32;101697.08;;;10.74;52.12
63194;BME280;49289;51.670;5.624;2023-03-16T05:51:20;101713.47;;;11.18;51.75
63194;BME280;49289;51.670;5.624;2023-03-16T05:53:08;101701.68;;;10.92;51.54
63194;BME280;49289;51.670;5.624;2023-03-16T05:54:56;101710.45;;;11.23;51.36
63194;BME280;49289;51.670;5.624;2023-03-16T05:56:44;101707.64;;;11.20;50.92
63194;BME280;49289;51.670;5.624;2023-03-16T05:58:32;101708.94;;;11.21;51.06
63194;BME280;49289;51.670;5.624;2023-03-16T06:00:22;101702.73;;;11.18;51.28
63194;BME280;49289;51.670;5.624;2023-03-16T06:02:09;101696.08;;;11.19;51.27
63194;BME280;49289;51.670;5.624;2023-03-16T06:03:56;101710.57;;;11.71;50.93
63194;BME280;49289;51.670;5.624;2023-03-16T06:05:43;101686.19;;;11.42;51.46
63194;BME280;49289;51.670;5.624;2023-03-16T06:07:30;101689.66;;;11.45;51.69
63194;BME280;49289;51.670;5.624;2023-03-16T06:09:17;101688.66;;;11.41;51.63
63194;BME280;49289;51.670;5.624;2023-03-16T06:11:04;101684.17;;;11.15;52.17
63194;BME280;49289;51.670;5.624;2023-03-16T06:12:51;101705.24;;;11.19;52.06
63194;BME280;49289;51.670;5.624;2023-03-16T06:14:38;101684.59;;;11.39;52.02
63194;BME280;49289;51.670;5.624;2023-03-16T06:16:25;101699.50;;;11.25;52.07
63194;BME280;49289;51.670;5.624;2023-03-16T06:18:12;101684.12;;;11.40;52.31
63194;BME280;49289;51.670;5.624;2023-03-16T06:19:59;101682.11;;;11.17;52.41
63194;BME280;49289;51.670;5.624;2023-03-16T06:21:46;101682.13;;;11.16;52.45
63194;BME280;49289;51.670;5.624;2023-03-16T06:23:33;101682.22;;;11.28;52.41
63194;BME280;49289;51.670;5.624;2023-03-16T06:25:22;101696.16;;;11.32;52.85
63194;BME280;49289;51.670;5.624;2023-03-16T06:27:09;101700.30;;;11.28;52.81
63194;BME280;49289;51.670;5.624;2023-03-16T06:28:56;101685.67;;;10.74;53.11
63194;BME280;49289;51.670;5.624;2023-03-16T06:30:43;101706.04;;;10.96;53.42
63194;BME280;49289;51.670;5.624;2023-03-16T06:32:30;101698.80;;;11.20;53.60
63194;BME280;49289;51.670;5.624;2023-03-16T06:34:17;101699.62;;;11.01;53.12
63194;BME280;49289;51.670;5.624;2023-03-16T06:36:04;101689.35;;;10.83;53.57
63194;BME280;49289;51.670;5.624;2023-03-16T06:37:51;101705.66;;;11.15;53.61
63194;BME280;49289;51.670;5.624;2023-03-16T06:39:38;101676.19;;;11.29;53.22
63194;BME280;49289;51.670;5.624;2023-03-16T06:41:25;101693.25;;;11.38;53.54
63194;BME280;49289;51.670;5.624;2023-03-16T06:43:12;101702.23;;;11.09;53.53
63194;BME280;49289;51.670;5.624;2023-03-16T06:44:59;101696.96;;;11.34;53.68
63194;BME280;49289;51.670;5.624;2023-03-16T06:46:46;101687.66;;;10.73;54.30
63194;BME280;49289;51.670;5.624;2023-03-16T06:48:33;101679.43;;;10.91;54.47
63194;BME280;49289;51.670;5.624;2023-03-16T06:50:21;101700.62;;;10.88;54.72
63194;BME280;49289;51.670;5.624;2023-03-16T06:52:08;101699.36;;;10.89;54.52
63194;BME280;49289;51.670;5.624;2023-03-16T06:53:55;101682.52;;;10.96;54.69
63194;BME280;49289;51.670;5.624;2023-03-16T06:55:42;101708.52;;;10.91;55.50
63194;BME280;49289;51.670;5.624;2023-03-16T06:57:29;101714.09;;;10.67;55.21
63194;BME280;49289;51.670;5.624;2023-03-16T06:59:17;101688.13;;;11.01;55.49
63194;BME280;49289;51.670;5.624;2023-03-16T07:01:06;101690.00;;;11.07;55.05
63194;BME280;49289;51.670;5.624;2023-03-16T07:02:54;101706.38;;;11.13;55.26
63194;BME280;49289;51.670;5.624;2023-03-16T07:04:42;101687.36;;;10.90;55.64
63194;BME280;49289;51.670;5.624;2023-03-16T07:06:30;101681.45;;;10.74;55.78
63194;BME280;49289;51.670;5.624;2023-03-16T07:08:18;101674.48;;;11.15;55.49
63194;BME280;49289;51.670;5.624;2023-03-16T07:10:06;101676.72;;;11.09;55.44
63194;BME280;49289;51.670;5.624;2023-03-16T07:11:54;101667.16;;;11.07;55.74
63194;BME280;49289;51.670;5.624;2023-03-16T07:13:42;101679.92;;;11.16;55.74
63194;BME280;49289;51.670;5.624;2023-03-16T07:15:30;101659.78;;;11.34;55.60
63194;BME280;49289;51.670;5.624;2023-03-16T07:17:17;101661.95;;;11.01;55.63
63194;BME280;49289;51.670;5.624;2023-03-16T07:19:04;101654.91;;;10.98;55.87
63194;BME280;49289;51.670;5.624;2023-03-16T07:20:51;101662.28;;;11.01;55.95
63194;BME280;49289;51.670;5.624;2023-03-16T07:22:38;101660.61;;;11.16;56.07
63194;BME280;49289;51.670;5.624;2023-03-16T07:24:25;101665.98;;;10.81;56.43
63194;BME280;49289;51.670;5.624;2023-03-16T07:26:12;101657.88;;;11.04;56.44
63194;BME280;49289;51.670;5.624;2023-03-16T07:27:59;101678.09;;;11.17;55.95
63194;BME280;49289;51.670;5.624;2023-03-16T07:29:46;101684.25;;;11.12;55.93
63194;BME280;49289;51.670;5.624;2023-03-16T07:31:33;101659.69;;;10.84;56.77
63194;BME280;49289;51.670;5.624;2023-03-16T07:33:20;101680.58;;;11.30;55.81
63194;BME280;49289;51.670;5.624;2023-03-16T07:35:07;101668.20;;;11.29;55.77
63194;BME280;49289;51.670;5.624;2023-03-16T07:36:54;101684.92;;;11.30;55.96
63194;BME280;49289;51.670;5.624;2023-03-16T07:38:41;101686.27;;;11.37;55.76
63194;BME280;49289;51.670;5.624;2023-03-16T07:40:28;101672.62;;;11.19;55.83
63194;BME280;49289;51.670;5.624;2023-03-16T07:42:15;101683.85;;;11.31;56.12
63194;BME280;49289;51.670;5.624;2023-03-16T07:44:02;101682.06;;;11.36;56.54
63194;BME280;49289;51.670;5.624;2023-03-16T07:45:52;101684.27;;;10.95;56.02
63194;BME280;49289;51.670;5.624;2023-03-16T07:47:39;101678.19;;;11.03;56.59
63194;BME280;49289;51.670;5.624;2023-03-16T07:49:26;101675.22;;;11.58;55.66
63194;BME280;49289;51.670;5.624;2023-03-16T07:51:13;101682.62;;;11.36;55.87
63194;BME280;49289;51.670;5.624;2023-03-16T07:53:00;101681.13;;;11.55;55.60
63194;BME280;49289;51.670;5.624;2023-03-16T07:54:47;101682.84;;;11.88;55.19
63194;BME280;49289;51.670;5.624;2023-03-16T07:56:34;101677.74;;;11.88;54.93
63194;BME280;49289;51.670;5.624;2023-03-16T07:58:21;101655.50;;;11.34;55.58
63194;BME280;49289;51.670;5.624;2023-03-16T08:00:10;101658.16;;;11.30;55.61
63194;BME280;49289;51.670;5.624;2023-03-16T08:01:58;101655.14;;;11.21;55.27
63194;BME280;49289;51.670;5.624;2023-03-16T08:03:46;101670.89;;;11.21;56.00
63194;BME280;49289;51.670;5.624;2023-03-16T08:05:34;101668.69;;;11.32;55.82
63194;BME280;49289;51.670;5.624;2023-03-16T08:07:22;101652.16;;;11.42;55.20
63194;BME280;49289;51.670;5.624;2023-03-16T08:09:10;101644.93;;;11.38;55.33
63194;BME280;49289;51.670;5.624;2023-03-16T08:10:58;101655.58;;;11.42;55.22
63194;BME280;49289;51.670;5.624;2023-03-16T08:12:46;101655.02;;;10.89;55.75
63194;BME280;49289;51.670;5.624;2023-03-16T08:14:34;101654.52;;;10.52;56.77
63194;BME280;49289;51.670;5.624;2023-03-16T08:16:23;101653.32;;;11.28;55.94
63194;BME280;49289;51.670;5.624;2023-03-16T08:18:10;101649.78;;;11.76;54.78
63194;BME280;49289;51.670;5.624;2023-03-16T08:19:58;101649.32;;;11.43;55.51
63194;BME280;49289;51.670;5.624;2023-03-16T08:22:45;101641.84;;;11.24;56.12
63194;BME280;49289;51.670;5.624;2023-03-16T08:24:32;101654.66;;;11.51;55.84
63194;BME280;49289;51.670;5.624;2023-03-16T08:26:19;101659.05;;;11.52;55.11
63194;BME280;49289;51.670;5.624;2023-03-16T08:28:06;101661.80;;;11.71;55.68
63194;BME280;49289;51.670;5.624;2023-03-16T08:29:56;101659.25;;;12.03;55.48
63194;BME280;49289;51.670;5.624;2023-03-16T08:31:43;101643.49;;;11.58;55.04
63194;BME280;49289;51.670;5.624;2023-03-16T08:33:32;101661.41;;;11.48;54.97
63194;BME280;49289;51.670;5.624;2023-03-16T08:35:19;101661.48;;;11.71;54.68
63194;BME280;49289;51.670;5.624;2023-03-16T08:37:07;101637.42;;;11.98;54.54
63194;BME280;49289;51.670;5.624;2023-03-16T08:38:56;101663.38;;;12.28;54.19
63194;BME280;49289;51.670;5.624;2023-03-16T08:40:44;101659.64;;;11.52;54.55
63194;BME280;49289;51.670;5.624;2023-03-16T08:42:31;101640.25;;;11.74;54.40
63194;BME280;49289;51.670;5.624;2023-03-16T08:44:18;101635.50;;;12.42;53.51
63194;BME280;49289;51.670;5.624;2023-03-16T08:46:05;101661.31;;;12.27;53.53
63194;BME280;49289;51.670;5.624;2023-03-16T08:47:52;101636.11;;;11.95;53.87
63194;BME280;49289;51.670;5.624;2023-03-16T08:49:39;101644.28;;;12.14;53.25
63194;BME280;49289;51.670;5.624;2023-03-16T08:51:26;101665.02;;;12.91;52.05
63194;BME280;49289;51.670;5.624;2023-03-16T08:53:13;101658.80;;;13.25;51.79
63194;BME280;49289;51.670;5.624;2023-03-16T08:55:00;101657.17;;;12.93;51.67
63194;BME280;49289;51.670;5.624;2023-03-16T08:56:47;101647.00;;;12.81;51.25
63194;BME280;49289;51.670;5.624;2023-03-16T08:58:35;101641.52;;;12.85;51.44
63194;BME280;49289;51.670;5.624;2023-03-16T09:00:24;101665.52;;;12.81;51.44
63194;BME280;49289;51.670;5.624;2023-03-16T09:02:15;101632.64;;;12.59;51.76
63194;BME280;49289;51.670;5.624;2023-03-16T09:04:03;101660.61;;;12.28;52.26
63194;BME280;49289;51.670;5.624;2023-03-16T09:05:51;101635.20;;;12.05;52.39
63194;BME280;49289;51.670;5.624;2023-03-16T09:07:39;101647.34;;;12.39;52.54
63194;BME280;49289;51.670;5.624;2023-03-16T09:09:26;101647.48;;;13.12;51.13
63194;BME280;49289;51.670;5.624;2023-03-16T09:11:14;101650.63;;;12.58;51.50
63194;BME280;49289;51.670;5.624;2023-03-16T09:13:00;101622.54;;;13.16;51.55
63194;BME280;49289;51.670;5.624;2023-03-16T09:14:47;101639.98;;;13.01;50.97
63194;BME280;49289;51.670;5.624;2023-03-16T09:16:34;101637.62;;;12.81;50.87
63194;BME280;49289;51.670;5.624;2023-03-16T09:18:21;101617.56;;;12.85;50.95
63194;BME280;49289;51.670;5.624;2023-03-16T09:20:08;101620.73;;;12.68;50.52
63194;BME280;49289;51.670;5.624;2023-03-16T09:21:55;101636.33;;;13.11;51.18
63194;BME280;49289;51.670;5.624;2023-03-16T09:23:42;101632.91;;;12.70;51.15
63194;BME280;49289;51.670;5.624;2023-03-16T09:25:29;101637.31;;;13.33;50.65